createdAt,value
2019-04-23T00:00:04.916Z,16.37
2019-04-23T00:02:24.789Z,15.90
2019-04-23T00:04:49.747Z,14.50
2019-04-23T00:07:39.668Z,15.03
2019-04-23T00:09:57.438Z,14.70
2019-04-23T00:12:38.956Z,15.07
2019-04-23T00:15:04.394Z,14.77
2019-04-23T00:17:40.270Z,14.33
2019-04-23T00:20:03.832Z,15.17
2019-04-23T00:23:08.805Z,15.30
2019-04-23T00:25:56.180Z,15.97
2019-04-23T00:30:56.752Z,13.67
2019-04-23T00:33:25.319Z,15.47
2019-04-23T00:36:10.360Z,15.87
2019-04-23T00:40:59.520Z,15.10
2019-04-23T00:43:27.094Z,15.27
2019-04-23T00:45:55.026Z,16.00
2019-04-23T00:53:30.289Z,15.23
2019-04-23T00:56:20.626Z,15.23
2019-04-23T00:58:38.062Z,14.83
2019-04-23T01:01:02.487Z,15.30
2019-04-23T01:03:37.529Z,15.27
2019-04-23T01:06:17.721Z,14.23
2019-04-23T01:08:39.094Z,15.53
2019-04-23T01:11:16.740Z,14.50
2019-04-23T01:13:49.598Z,15.60
2019-04-23T01:16:19.589Z,15.30
2019-04-23T01:21:11.722Z,15.57
2019-04-23T01:23:58.796Z,16.47
2019-04-23T01:26:50.350Z,15.40
2019-04-23T01:29:21.356Z,14.73
2019-04-23T01:31:52.042Z,15.83
2019-04-23T01:34:26.029Z,15.07
2019-04-23T01:36:52.297Z,15.37
2019-04-23T01:39:25.794Z,15.80
2019-04-23T01:41:55.597Z,15.93
2019-04-23T01:44:31.364Z,16.23
2019-04-23T01:46:59.454Z,16.87
2019-04-23T01:49:37.011Z,16.53
2019-04-23T01:52:01.769Z,16.30
2019-04-23T01:54:30.534Z,16.03
2019-04-23T01:57:04.026Z,15.23
2019-04-23T01:59:31.672Z,16.80
2019-04-23T02:02:22.135Z,15.87
2019-04-23T02:04:41.113Z,16.90
2019-04-23T02:07:06.382Z,16.20
2019-04-23T02:12:04.475Z,17.07
2019-04-23T02:14:36.483Z,17.13
2019-04-23T02:17:10.531Z,17.27
2019-04-23T02:22:25.228Z,16.80
2019-04-23T02:24:55.899Z,16.40
2019-04-23T02:27:22.480Z,16.87
2019-04-23T02:32:28.935Z,17.40
2019-04-23T02:35:16.932Z,17.07
2019-04-23T02:37:51.553Z,18.53
2019-04-23T02:40:07.484Z,17.67
2019-04-23T02:45:04.729Z,17.97
2019-04-23T02:47:34.976Z,17.37
2019-04-23T02:52:37.088Z,17.67
2019-04-23T02:55:13.310Z,18.30
2019-04-23T02:57:35.584Z,17.77
2019-04-23T03:02:45.203Z,17.30
2019-04-23T03:07:45.412Z,16.77
2019-04-23T03:10:15.987Z,16.27
2019-04-23T03:15:39.753Z,18.77
2019-04-23T03:18:21.025Z,17.60
2019-04-23T03:21:00.422Z,17.77
2019-04-23T03:26:08.656Z,17.90
2019-04-23T03:36:10.889Z,17.00
2019-04-23T03:43:39.143Z,20.63
2019-04-23T03:46:15.679Z,18.60
2019-04-23T03:48:41.629Z,19.20
2019-04-23T03:51:03.154Z,19.10
2019-04-23T03:53:52.797Z,19.30
2019-04-23T03:56:24.159Z,19.50
2019-04-23T04:01:11.863Z,19.10
2019-04-23T04:06:40.706Z,19.60
2019-04-23T04:08:56.256Z,19.90
2019-04-23T04:11:18.234Z,19.87
2019-04-23T04:19:06.529Z,20.70
2019-04-23T04:21:27.615Z,20.63
2019-04-23T04:23:52.819Z,21.17
2019-04-23T04:26:22.854Z,20.73
2019-04-23T04:28:51.046Z,20.57
2019-04-23T04:31:26.188Z,20.80
2019-04-23T04:36:38.671Z,20.33
2019-04-23T04:38:54.483Z,20.30
2019-04-23T04:44:17.577Z,20.23
2019-04-23T04:49:05.535Z,19.73
2019-04-23T04:51:37.919Z,20.40
2019-04-23T04:56:39.616Z,18.80
2019-04-23T05:01:28.471Z,20.80
2019-04-23T05:03:59.947Z,21.47
2019-04-23T05:06:46.463Z,20.60
2019-04-23T05:14:25.218Z,18.90
2019-04-23T05:16:35.677Z,20.60
2019-04-23T05:19:27.032Z,18.33
2019-04-23T05:24:14.853Z,19.80
2019-04-23T05:26:33.459Z,19.37
2019-04-23T05:31:42.143Z,19.30
2019-04-23T05:36:51.937Z,19.13
2019-04-23T05:39:26.865Z,18.57
2019-04-23T05:41:52.557Z,19.13
2019-04-23T05:44:35.034Z,19.47
2019-04-23T05:47:11.512Z,18.23
2019-04-23T05:49:22.750Z,19.30
2019-04-23T05:54:29.936Z,18.30
2019-04-23T05:56:51.709Z,17.27
2019-04-23T05:59:26.242Z,20.10
2019-04-23T06:07:15.164Z,17.40
2019-04-23T06:09:26.620Z,19.63
2019-04-23T06:14:32.776Z,19.53
2019-04-23T06:17:03.260Z,18.80
2019-04-23T06:22:06.034Z,18.60
2019-04-23T06:27:08.491Z,18.40
2019-04-23T06:32:02.236Z,18.30
2019-04-23T06:37:06.751Z,17.33
2019-04-23T06:42:08.045Z,17.03
2019-04-23T06:44:51.707Z,17.47
2019-04-23T06:47:20.088Z,16.90
2019-04-23T06:55:08.589Z,14.83
2019-04-23T06:57:23.835Z,15.77
2019-04-23T06:59:54.665Z,15.80
2019-04-23T07:02:27.199Z,17.80
2019-04-23T07:05:04.111Z,17.70
2019-04-23T07:07:42.621Z,17.17
2019-04-23T07:09:58.342Z,16.27
2019-04-23T07:12:33.292Z,16.90
2019-04-23T07:15:13.300Z,15.37
2019-04-23T07:17:30.882Z,16.83
2019-04-23T07:20:03.784Z,17.10
2019-04-23T07:22:28.492Z,16.10
2019-04-23T07:25:17.526Z,16.20
2019-04-23T07:30:11.637Z,16.80
2019-04-23T07:32:38.974Z,17.23
2019-04-23T07:35:15.847Z,17.70
2019-04-23T07:37:46.119Z,19.13
2019-04-23T07:43:32.315Z,17.70
2019-04-23T07:48:28.878Z,18.93
2019-04-23T07:51:06.404Z,18.40
2019-04-23T07:53:44.315Z,16.43
2019-04-23T07:58:33.200Z,17.13
2019-04-23T08:01:09.663Z,17.80
2019-04-23T08:03:45.167Z,17.53
2019-04-23T08:06:15.259Z,18.20
2019-04-23T08:08:41.753Z,18.97
2019-04-23T08:16:28.225Z,19.93
2019-04-23T08:21:52.510Z,23.33
2019-04-23T08:24:45.361Z,23.70
2019-04-23T08:27:28.208Z,17.27
2019-04-23T08:30:00.287Z,17.23
2019-04-23T08:32:29.254Z,15.70
2019-04-23T08:37:49.397Z,14.07
2019-04-23T08:40:06.493Z,14.40
2019-04-23T08:42:49.641Z,13.90
2019-04-23T08:50:57.862Z,13.90
2019-04-23T08:55:49.462Z,14.80
2019-04-23T08:58:19.134Z,15.23
2019-04-23T09:03:24.815Z,15.10
2019-04-23T09:08:27.829Z,13.33
2019-04-23T09:13:52.478Z,15.50
2019-04-23T09:15:58.332Z,13.93
2019-04-23T09:20:57.211Z,13.00
2019-04-23T09:23:36.376Z,14.20
2019-04-23T09:26:00.849Z,15.10
2019-04-23T09:28:43.382Z,14.90
2019-04-23T09:31:18.874Z,14.23
2019-04-23T09:33:54.808Z,13.37
2019-04-23T09:36:41.941Z,13.47
2019-04-23T09:41:54.689Z,14.10
2019-04-23T09:44:56.258Z,13.37
2019-04-23T09:47:45.899Z,14.43
2019-04-23T09:50:11.065Z,13.27
2019-04-23T09:52:46.124Z,13.60
2019-04-23T09:55:24.021Z,14.97
2019-04-23T09:57:46.489Z,13.83
2019-04-23T10:00:18.770Z,13.53
2019-04-23T10:02:34.318Z,13.30
2019-04-23T10:05:01.397Z,13.37
2019-04-23T10:07:30.041Z,15.00
2019-04-23T10:09:49.699Z,13.20
2019-04-23T10:12:20.079Z,13.50
2019-04-23T10:14:59.012Z,13.80
2019-04-23T10:17:20.198Z,13.30
2019-04-23T10:19:50.849Z,13.13
2019-04-23T10:22:19.989Z,13.60
2019-04-23T10:24:49.021Z,13.00
2019-04-23T10:27:18.842Z,12.83
2019-04-23T10:29:49.847Z,12.80
2019-04-23T10:32:19.856Z,13.47
2019-04-23T10:35:00.772Z,13.70
2019-04-23T10:37:31.919Z,13.63
2019-04-23T10:39:56.603Z,13.63
2019-04-23T10:42:21.899Z,14.10
2019-04-23T10:45:36.995Z,13.80
2019-04-23T10:48:38.582Z,13.30
2019-04-23T10:53:46.785Z,12.80
2019-04-23T10:56:30.980Z,13.67
2019-04-23T10:58:45.904Z,14.00
2019-04-23T11:01:22.919Z,13.27
2019-04-23T11:04:12.478Z,12.40
2019-04-23T11:09:04.986Z,13.53
2019-04-23T11:11:27.514Z,13.33
2019-04-23T11:14:07.090Z,12.97
2019-04-23T11:19:10.730Z,13.03
2019-04-23T11:21:34.217Z,13.53
2019-04-23T11:24:11.843Z,13.43
2019-04-23T11:26:38.815Z,13.17
2019-04-23T11:29:15.063Z,13.43
2019-04-23T11:34:26.636Z,13.97
2019-04-23T11:38:01.635Z,13.10
2019-04-23T11:39:05.573Z,11.40
2019-04-23T11:41:51.258Z,13.50
2019-04-23T11:49:26.330Z,12.57
2019-04-23T11:51:54.706Z,12.70
2019-04-23T11:54:17.728Z,12.57
2019-04-23T11:59:29.194Z,12.70
2019-04-23T12:02:07.320Z,12.60
2019-04-23T12:05:00.895Z,12.67
2019-04-23T12:07:29.714Z,13.00
2019-04-23T12:10:29.108Z,12.30
2019-04-23T12:12:47.801Z,12.43
2019-04-23T12:18:05.499Z,11.83
2019-04-23T12:20:26.733Z,11.20
2019-04-23T12:23:08.946Z,11.23
2019-04-23T12:27:51.217Z,11.60
2019-04-23T12:30:35.907Z,12.60
2019-04-23T12:34:36.072Z,12.17
2019-04-23T12:36:52.122Z,11.47
2019-04-23T12:39:41.999Z,10.90
2019-04-23T12:42:03.445Z,11.73
2019-04-23T12:44:38.998Z,11.10
2019-04-23T12:47:17.123Z,11.30
2019-04-23T12:49:52.842Z,10.03
2019-04-23T12:52:11.411Z,11.07
2019-04-23T12:54:52.081Z,10.77
2019-04-23T12:57:14.848Z,10.07
2019-04-23T12:59:44.714Z,10.03
2019-04-23T13:02:16.096Z,11.13
2019-04-23T13:07:17.236Z,10.40
2019-04-23T13:09:54.071Z,10.43
2019-04-23T13:12:32.639Z,9.80
2019-04-23T13:14:55.530Z,11.27
2019-04-23T13:17:32.972Z,10.17
2019-04-23T13:22:23.933Z,10.47
2019-04-23T13:25:23.846Z,9.50
2019-04-23T13:27:57.181Z,9.80
2019-04-23T13:30:27.933Z,10.10
2019-04-23T13:32:55.567Z,9.90
2019-04-23T13:35:38.346Z,9.87
2019-04-23T13:43:13.956Z,10.20
2019-04-23T13:48:03.198Z,10.47
2019-04-23T13:50:37.492Z,11.30
2019-04-23T13:55:24.745Z,10.87
2019-04-23T14:05:51.212Z,11.30
2019-04-23T14:08:22.916Z,10.93
2019-04-23T14:10:44.850Z,10.40
2019-04-23T14:20:53.243Z,9.20
2019-04-23T14:26:13.500Z,9.03
2019-04-23T14:31:00.688Z,9.37
2019-04-23T14:33:38.313Z,8.93
2019-04-23T14:36:01.148Z,10.10
2019-04-23T14:41:09.617Z,10.47
2019-04-23T14:48:56.797Z,10.03
2019-04-23T14:54:03.011Z,8.60
2019-04-23T14:56:17.024Z,9.13
2019-04-23T14:58:55.559Z,9.00
2019-04-23T15:03:47.068Z,9.77
2019-04-23T15:06:36.377Z,9.47
2019-04-23T15:11:38.324Z,10.47
2019-04-23T15:13:49.394Z,10.30
2019-04-23T15:16:26.656Z,9.87
2019-04-23T15:19:23.840Z,11.57
2019-04-23T15:22:04.897Z,10.30
2019-04-23T15:24:25.238Z,9.03
2019-04-23T15:28:58.645Z,8.77
2019-04-23T15:31:52.448Z,9.80
2019-04-23T15:37:14.017Z,8.67
2019-04-23T15:47:04.568Z,9.17
2019-04-23T15:49:30.462Z,9.90
2019-04-23T15:54:37.165Z,8.57
2019-04-23T15:57:05.576Z,8.80
2019-04-23T16:01:42.650Z,8.77
2019-04-23T16:04:08.257Z,11.00
2019-04-23T16:06:38.814Z,9.90
2019-04-23T16:09:26.165Z,9.20
2019-04-23T16:11:59.146Z,10.10
2019-04-23T16:14:48.963Z,9.50
2019-04-23T16:17:24.040Z,11.03
2019-04-23T16:20:06.166Z,11.70
2019-04-23T16:22:25.054Z,11.17
2019-04-23T16:25:00.994Z,10.30
2019-04-23T16:27:19.623Z,12.00
2019-04-23T16:30:09.750Z,11.37
2019-04-23T16:33:06.903Z,11.63
2019-04-23T16:35:34.650Z,12.67
2019-04-23T16:38:18.102Z,11.10
2019-04-23T16:40:42.616Z,12.17
2019-04-23T16:43:08.896Z,12.67
2019-04-23T16:45:31.348Z,11.37
2019-04-23T16:48:17.160Z,11.00
2019-04-23T16:50:58.091Z,12.03
2019-04-23T16:53:16.402Z,11.73
2019-04-23T16:55:50.305Z,11.10
2019-04-23T16:58:21.872Z,10.43
2019-04-23T17:00:51.519Z,12.33
2019-04-23T17:03:19.390Z,10.57
2019-04-23T17:08:40.467Z,11.50
2019-04-23T17:13:13.706Z,12.47
2019-04-23T17:15:53.507Z,11.93
2019-04-23T17:18:17.255Z,12.07
2019-04-23T17:23:31.224Z,13.90
2019-04-23T17:25:51.865Z,11.17
2019-04-23T17:28:23.310Z,12.23
2019-04-23T17:31:15.444Z,13.43
2019-04-23T17:33:39.498Z,12.43
2019-04-23T17:36:18.521Z,11.73
2019-04-23T17:41:31.298Z,13.20
2019-04-23T17:44:10.704Z,12.50
2019-04-23T17:46:27.318Z,13.87
2019-04-23T17:49:04.342Z,12.20
2019-04-23T17:51:26.340Z,17.63
2019-04-23T17:59:04.126Z,14.43
2019-04-23T18:01:35.784Z,14.20
2019-04-23T18:04:15.230Z,12.87
2019-04-23T18:06:41.303Z,12.07
2019-04-23T18:09:14.302Z,12.90
2019-04-23T18:11:35.666Z,14.27
2019-04-23T18:14:07.146Z,12.83
2019-04-23T18:16:49.258Z,12.57
2019-04-23T18:19:12.362Z,12.43
2019-04-23T18:22:09.407Z,13.90
2019-04-23T18:25:00.821Z,14.90
2019-04-23T18:30:15.614Z,13.67
2019-04-23T18:35:29.954Z,15.20
2019-04-23T18:38:04.900Z,12.47
2019-04-23T18:40:38.819Z,13.70
2019-04-23T18:45:41.582Z,13.87
2019-04-23T18:48:40.634Z,13.67
2019-04-23T18:53:33.778Z,13.50
2019-04-23T18:58:34.499Z,14.03
2019-04-23T19:01:05.260Z,14.47
2019-04-23T19:03:48.106Z,14.50
2019-04-23T19:06:39.728Z,15.10
2019-04-23T19:10:19.019Z,16.40
2019-04-23T19:15:09.431Z,15.27
2019-04-23T19:17:48.606Z,14.27
2019-04-23T19:20:01.162Z,16.30
2019-04-23T19:22:44.486Z,14.70
2019-04-23T19:25:11.001Z,16.37
2019-04-23T19:30:14.009Z,14.07
2019-04-23T19:32:47.917Z,15.60
2019-04-23T19:35:31.523Z,15.67
2019-04-23T19:37:49.556Z,16.70
2019-04-23T19:40:10.022Z,16.50
2019-04-23T19:42:52.268Z,14.40
2019-04-23T19:45:17.200Z,15.23
2019-04-23T19:47:55.946Z,13.63
2019-04-23T19:50:26.249Z,13.50
2019-04-23T19:53:03.544Z,15.47
2019-04-23T19:55:17.317Z,14.93
2019-04-23T19:57:50.477Z,15.93
2019-04-23T20:00:17.464Z,14.87
2019-04-23T20:05:23.511Z,14.60
2019-04-23T20:08:02.237Z,14.87
2019-04-23T20:10:24.195Z,14.90
2019-04-23T20:12:44.856Z,13.97
2019-04-23T20:15:35.938Z,15.33
2019-04-23T20:20:25.538Z,15.10
2019-04-23T20:22:55.644Z,13.30
2019-04-23T20:25:52.456Z,15.07
2019-04-23T20:36:21.692Z,13.07
2019-04-23T20:41:36.153Z,16.10
2019-04-23T20:43:55.571Z,17.87
2019-04-23T20:46:29.003Z,15.20
2019-04-23T20:48:56.932Z,14.33
2019-04-23T20:51:35.010Z,13.70
2019-04-23T20:59:00.193Z,15.10
2019-04-23T21:01:55.657Z,14.80
2019-04-23T21:04:35.374Z,13.30
2019-04-23T21:07:03.118Z,14.20
2019-04-23T21:09:37.988Z,15.20
2019-04-23T21:12:04.194Z,15.70
2019-04-23T21:14:48.505Z,15.70
2019-04-23T21:16:58.373Z,16.27
2019-04-23T21:19:39.500Z,14.37
2019-04-23T21:22:09.935Z,13.93
2019-04-23T21:24:43.368Z,15.80
2019-04-23T21:27:41.031Z,14.83
2019-04-23T21:32:52.575Z,14.80
2019-04-23T21:35:07.650Z,15.47
2019-04-23T21:40:59.172Z,15.27
2019-04-23T21:43:47.377Z,15.10
2019-04-23T21:46:28.209Z,15.30
2019-04-23T21:48:53.197Z,15.30
2019-04-23T21:51:09.596Z,14.03
2019-04-23T21:53:42.173Z,16.17
2019-04-23T21:56:10.926Z,14.10
2019-04-23T21:58:57.383Z,15.20
2019-04-23T22:01:24.456Z,14.90
2019-04-23T22:04:06.791Z,15.57
2019-04-23T22:06:22.472Z,15.57
2019-04-23T22:08:56.334Z,15.50
2019-04-23T22:11:43.945Z,15.63
2019-04-23T22:16:27.781Z,19.43
2019-04-23T22:19:07.222Z,17.10
2019-04-23T22:26:28.464Z,17.13
2019-04-23T22:29:06.624Z,17.07
2019-04-23T22:31:37.773Z,17.30
2019-04-23T22:36:29.280Z,16.67
2019-04-23T22:41:38.075Z,17.00
2019-04-23T22:44:05.304Z,17.80
2019-04-23T22:49:29.234Z,17.17
2019-04-23T22:51:55.326Z,16.77
2019-04-23T22:54:13.900Z,17.20
2019-04-23T22:56:51.363Z,17.77
2019-04-23T22:59:33.676Z,18.13
2019-04-23T23:01:54.748Z,17.30
2019-04-23T23:04:40.804Z,18.70
2019-04-23T23:11:54.258Z,18.60
2019-04-23T23:14:24.332Z,16.83
2019-04-23T23:19:30.188Z,18.53
2019-04-23T23:29:28.228Z,19.97
2019-04-23T23:32:00.753Z,18.83
2019-04-23T23:34:36.883Z,17.90
2019-04-23T23:39:37.156Z,19.93
2019-04-23T23:42:07.413Z,19.17
2019-04-23T23:47:10.568Z,19.63
2019-04-23T23:49:36.163Z,20.27
2019-04-23T23:52:27.934Z,19.57
2019-04-23T23:54:39.341Z,19.27
2019-04-23T23:57:12.178Z,20.50
